Time;durP1;ratioP1;P1;durP2;ratioP2;P2;SDS_P1;SDS_P2;PMS_P1;PMS_P2;Temp;Humidity;BMP_temperature;BMP_pressure;BME280_temperature;BME280_humidity;BME280_pressure;Samples;Min_cycle;Max_cycle;Signal;HPM_P1;HPM_P2
2022/10/18 04:02:27;;;;;;;4.27;2.57;;;;;;;;;;5149198;23;20431;-80
2022/10/18 04:04:53;;;;;;;5.10;2.90;;;;;;;;;;5028478;28;20422;-81
2022/10/18 04:07:19;;;;;;;3.65;2.60;;;;;;;;;;5027463;28;20400;-81
2022/10/18 04:09:45;;;;;;;3.75;2.72;;;;;;;;;;5024502;28;20413;-81
2022/10/18 04:12:11;;;;;;;6.90;2.47;;;;;;;;;;5032205;28;20492;-81
2022/10/18 04:14:37;;;;;;;5.40;2.50;;;;;;;;;;5031371;28;20390;-81
2022/10/18 04:17:03;;;;;;;4.03;2.50;;;;;;;;;;5032119;28;20888;-81
2022/10/18 04:19:29;;;;;;;3.80;2.60;;;;;;;;;;5028386;28;20373;-80
2022/10/18 04:21:55;;;;;;;2.90;2.60;;;;;;;;;;5032035;28;20449;-81
2022/10/18 04:24:21;;;;;;;3.67;2.72;;;;;;;;;;5032194;28;20383;-81
2022/10/18 04:26:47;;;;;;;4.13;2.72;;;;;;;;;;5032092;28;20816;-81
2022/10/18 04:29:14;;;;;;;4.18;2.38;;;;;;;;;;5031338;28;20415;-81
2022/10/18 04:31:39;;;;;;;4.60;2.53;;;;;;;;;;5031867;28;20426;-81
2022/10/18 04:34:05;;;;;;;3.43;2.40;;;;;;;;;;5032096;28;20856;-81
2022/10/18 04:36:32;;;;;;;2.83;2.55;;;;;;;;;;5032167;28;20371;-81
2022/10/18 04:38:57;;;;;;;3.33;2.55;;;;;;;;;;5035018;28;20399;-80
2022/10/18 04:41:23;;;;;;;6.70;2.85;;;;;;;;;;5032767;28;20441;-81
2022/10/18 04:43:49;;;;;;;5.77;2.90;;;;;;;;;;5033482;28;20383;-81
2022/10/18 04:46:15;;;;;;;4.32;2.67;;;;;;;;;;5034684;28;20811;-81
2022/10/18 04:48:41;;;;;;;3.25;2.42;;;;;;;;;;5035903;28;20474;-81
2022/10/18 04:51:07;;;;;;;4.10;2.38;;;;;;;;;;5036238;28;20518;-81
2022/10/18 04:53:33;;;;;;;4.07;2.70;;;;;;;;;;5034495;28;20441;-81
2022/10/18 04:55:59;;;;;;;4.78;2.72;;;;;;;;;;5031565;28;20416;-81
2022/10/18 04:58:25;;;;;;;5.68;3.00;;;;;;;;;;5028916;28;20387;-80
2022/10/18 05:00:51;;;;;;;6.05;2.25;;;;;;;;;;5035389;28;20428;-81
2022/10/18 05:03:17;;;;;;;3.50;2.40;;;;;;;;;;5035820;28;20432;-81
2022/10/18 05:05:44;;;;;;;5.38;2.33;;;;;;;;;;5035592;28;20856;-81
2022/10/18 05:08:11;;;;;;;4.43;2.53;;;;;;;;;;5035695;28;20387;-81
2022/10/18 05:10:37;;;;;;;5.43;2.50;;;;;;;;;;5035183;28;20478;-81
2022/10/18 05:13:03;;;;;;;3.17;2.40;;;;;;;;;;5034486;28;20406;-81
2022/10/18 05:15:29;;;;;;;4.72;2.38;;;;;;;;;;5035452;28;20383;-81
2022/10/18 05:17:54;;;;;;;4.90;2.50;;;;;;;;;;5034399;28;20784;-81
2022/10/18 05:20:20;;;;;;;4.20;2.70;;;;;;;;;;5035370;28;20387;-81
2022/10/18 05:22:46;;;;;;;5.07;2.42;;;;;;;;;;5035124;28;20895;-81
2022/10/18 05:25:13;;;;;;;3.80;2.70;;;;;;;;;;5033993;28;20399;-81
2022/10/18 05:27:39;;;;;;;6.45;2.88;;;;;;;;;;5021517;28;20943;-80
2022/10/18 05:30:05;;;;;;;8.40;2.72;;;;;;;;;;5035371;28;20391;-80
2022/10/18 05:32:31;;;;;;;2.97;2.60;;;;;;;;;;5025285;28;20758;-81
2022/10/18 05:34:57;;;;;;;3.50;2.72;;;;;;;;;;5019857;28;20469;-80
2022/10/18 05:37:23;;;;;;;5.90;3.13;;;;;;;;;;5035309;28;20452;-81
2022/10/18 05:39:49;;;;;;;5.05;3.05;;;;;;;;;;5021388;28;20376;-80
2022/10/18 05:42:15;;;;;;;9.27;3.88;;;;;;;;;;5023715;28;20729;-81
2022/10/18 05:44:41;;;;;;;5.93;3.22;;;;;;;;;;5034827;28;20483;-81
2022/10/18 05:47:07;;;;;;;6.57;3.22;;;;;;;;;;5034883;28;20774;-81
2022/10/18 05:49:33;;;;;;;5.78;3.70;;;;;;;;;;5035074;28;20418;-81
2022/10/18 05:51:59;;;;;;;4.38;3.33;;;;;;;;;;5034577;28;20427;-81
2022/10/18 05:54:25;;;;;;;7.05;3.72;;;;;;;;;;5034562;28;20380;-81
2022/10/18 05:56:51;;;;;;;6.93;3.47;;;;;;;;;;5025256;28;20383;-81
2022/10/18 05:59:17;;;;;;;5.90;3.20;;;;;;;;;;5034612;28;20444;-81
2022/10/18 06:01:43;;;;;;;5.22;4.13;;;;;;;;;;5034298;28;20390;-81
2022/10/18 06:04:09;;;;;;;6.83;3.70;;;;;;;;;;5034598;28;20741;-81
2022/10/18 06:06:35;;;;;;;4.80;3.78;;;;;;;;;;5034551;28;20390;-81
2022/10/18 06:09:04;;;;;;;4.73;3.93;;;;;;;;;;5034311;28;20379;-81
2022/10/18 06:11:31;;;;;;;5.50;4.10;;;;;;;;;;5034245;28;20399;-81
2022/10/18 06:13:57;;;;;;;8.70;5.88;;;;;;;;;;5034441;28;20390;-81
2022/10/18 06:16:24;;;;;;;6.80;6.20;;;;;;;;;;5034226;28;20471;-81
2022/10/18 06:18:51;;;;;;;8.47;7.00;;;;;;;;;;5023769;28;20429;-81
2022/10/18 06:21:18;;;;;;;6.90;6.25;;;;;;;;;;5017765;28;20414;-81
2022/10/18 06:23:48;;;;;;;7.88;6.30;;;;;;;;;;5017745;28;20388;-81
2022/10/18 06:26:14;;;;;;;8.50;6.25;;;;;;;;;;5014754;28;20466;-81
2022/10/18 06:28:40;;;;;;;7.78;6.97;;;;;;;;;;5014140;28;20488;-81
2022/10/18 06:31:06;;;;;;;7.18;6.00;;;;;;;;;;5017273;28;20409;-81
2022/10/18 06:33:32;;;;;;;7.53;6.80;;;;;;;;;;5016918;28;20404;-80
2022/10/18 06:36:03;;;;;;;9.57;6.53;;;;;;;;;;5014309;28;20444;-80
2022/10/18 06:38:29;;;;;;;7.25;6.03;;;;;;;;;;5018554;28;20748;-79
2022/10/18 06:40:56;;;;;;;6.70;6.10;;;;;;;;;;5025557;28;20865;-80
2022/10/18 06:43:22;;;;;;;7.93;6.53;;;;;;;;;;5033780;28;20900;-80
2022/10/18 06:45:48;;;;;;;8.13;7.32;;;;;;;;;;5033360;28;20446;-81
2022/10/18 06:48:14;;;;;;;8.70;7.47;;;;;;;;;;5033584;28;20380;-81
2022/10/18 06:50:40;;;;;;;10.00;8.30;;;;;;;;;;5033528;28;20383;-80
2022/10/18 06:53:07;;;;;;;11.15;9.30;;;;;;;;;;5033770;28;20758;-80
2022/10/18 06:55:34;;;;;;;10.77;9.13;;;;;;;;;;5033040;28;20433;-79
2022/10/18 06:58:00;;;;;;;16.30;11.15;;;;;;;;;;5026085;28;20387;-81
2022/10/18 07:00:26;;;;;;;12.87;10.70;;;;;;;;;;5033441;28;20400;-80
2022/10/18 07:02:52;;;;;;;11.93;10.70;;;;;;;;;;5033426;28;20882;-83
2022/10/18 07:05:18;;;;;;;19.17;14.70;;;;;;;;;;5018232;28;20434;-83
2022/10/18 07:07:44;;;;;;;16.15;11.43;;;;;;;;;;5025604;28;20383;-84
2022/10/18 07:10:10;;;;;;;15.00;12.83;;;;;;;;;;5033440;28;20390;-83
2022/10/18 07:12:36;;;;;;;17.48;13.25;;;;;;;;;;5031925;28;20415;-84
2022/10/18 07:15:02;;;;;;;16.10;13.00;;;;;;;;;;5033337;28;20474;-83
2022/10/18 07:17:28;;;;;;;22.13;13.77;;;;;;;;;;5033107;28;20411;-84
2022/10/18 07:19:54;;;;;;;24.60;14.55;;;;;;;;;;5032577;28;20856;-85
2022/10/18 07:22:20;;;;;;;21.13;13.52;;;;;;;;;;5016837;28;20396;-84
2022/10/18 07:24:46;;;;;;;20.45;13.13;;;;;;;;;;5018902;28;20389;-86
2022/10/18 07:27:12;;;;;;;16.98;13.27;;;;;;;;;;5028810;28;22342;-85
2022/10/18 07:29:39;;;;;;;22.05;14.23;;;;;;;;;;5011507;28;20379;-84
2022/10/18 07:32:05;;;;;;;16.95;13.65;;;;;;;;;;5032372;28;20497;-84
2022/10/18 07:34:31;;;;;;;19.92;13.40;;;;;;;;;;5032407;28;20387;-84
2022/10/18 07:36:57;;;;;;;19.45;13.35;;;;;;;;;;5031946;28;20386;-84
2022/10/18 07:39:23;;;;;;;16.47;13.23;;;;;;;;;;5006123;28;20952;-84
2022/10/18 07:41:49;;;;;;;17.35;14.32;;;;;;;;;;5012036;28;20389;-84
2022/10/18 07:44:16;;;;;;;22.30;15.32;;;;;;;;;;5020802;28;20449;-84
2022/10/18 07:46:42;;;;;;;21.92;15.13;;;;;;;;;;5016574;28;20384;-84
2022/10/18 07:49:08;;;;;;;15.73;13.55;;;;;;;;;;5013562;28;20471;-88
2022/10/18 07:51:34;;;;;;;20.23;14.38;;;;;;;;;;5027992;28;20629;-89
2022/10/18 07:54:01;;;;;;;20.98;15.38;;;;;;;;;;5013767;28;20412;-87
2022/10/18 07:56:27;;;;;;;21.48;14.68;;;;;;;;;;5010977;28;20898;-89
2022/10/18 07:58:54;;;;;;;15.57;13.40;;;;;;;;;;5014628;28;20394;-87
2022/10/18 08:01:21;;;;;;;19.40;14.10;;;;;;;;;;5006143;28;20511;-89
2022/10/18 08:03:47;;;;;;;23.10;16.38;;;;;;;;;;5023804;28;20391;-88
2022/10/18 08:06:15;;;;;;;26.75;17.00;;;;;;;;;;5032389;28;20391;-89
2022/10/18 08:08:41;;;;;;;20.77;15.88;;;;;;;;;;5008716;28;20398;-90
2022/10/18 08:11:08;;;;;;;17.55;14.48;;;;;;;;;;5032154;28;20402;-89
2022/10/18 08:13:34;;;;;;;17.65;14.43;;;;;;;;;;5032338;28;20382;-90
2022/10/18 08:16:01;;;;;;;25.02;17.17;;;;;;;;;;5032240;28;20379;-88
2022/10/18 08:18:27;;;;;;;22.92;15.95;;;;;;;;;;5031480;28;20783;-88
2022/10/18 08:20:53;;;;;;;25.33;18.38;;;;;;;;;;5031837;28;20375;-88
2022/10/18 08:23:19;;;;;;;33.63;22.40;;;;;;;;;;5032076;28;20398;-89
2022/10/18 08:25:45;;;;;;;36.15;23.92;;;;;;;;;;5032099;28;20383;-88
2022/10/18 08:28:12;;;;;;;35.60;23.77;;;;;;;;;;5018181;28;20383;-89
2022/10/18 08:30:39;;;;;;;35.33;22.27;;;;;;;;;;5031912;28;20384;-87
2022/10/18 08:33:05;;;;;;;33.95;21.75;;;;;;;;;;5032057;28;20466;-89
2022/10/18 08:35:31;;;;;;;37.47;22.20;;;;;;;;;;5032090;28;20407;-90
2022/10/18 08:37:58;;;;;;;29.55;19.42;;;;;;;;;;5032193;28;20395;-90
2022/10/18 08:40:26;;;;;;;30.65;19.95;;;;;;;;;;5032188;28;20376;-89
2022/10/18 08:43:06;;;;;;;29.85;18.85;;;;;;;;;;5031995;28;20437;-89
2022/10/18 08:45:36;;;;;;;20.10;15.45;;;;;;;;;;5032048;28;20379;-89
2022/10/18 08:48:04;;;;;;;20.15;15.38;;;;;;;;;;5022494;28;20399;-88
2022/10/18 08:50:34;;;;;;;18.35;15.40;;;;;;;;;;5031945;28;20387;-90
2022/10/18 08:53:19;;;;;;;19.30;15.10;;;;;;;;;;5031547;28;20413;-87
2022/10/18 08:55:46;;;;;;;19.17;15.18;;;;;;;;;;5029639;28;20718;-88
2022/10/18 08:58:23;;;;;;;19.25;15.32;;;;;;;;;;5011164;28;20408;-87
2022/10/18 09:00:58;;;;;;;15.93;13.48;;;;;;;;;;5019705;28;20382;-87
2022/10/18 09:03:50;;;;;;;20.50;11.90;;;;;;;;;;5021939;28;20486;-87
2022/10/18 09:06:23;;;;;;;17.85;11.98;;;;;;;;;;5031851;28;20756;-86
2022/10/18 09:09:07;;;;;;;15.65;12.20;;;;;;;;;;5031829;28;20446;-87
2022/10/18 09:11:47;;;;;;;16.08;11.85;;;;;;;;;;5031576;28;20402;-87
2022/10/18 09:14:12;;;;;;;14.80;12.25;;;;;;;;;;5031810;28;20425;-88
2022/10/18 09:16:54;;;;;;;15.53;12.50;;;;;;;;;;5031942;28;20872;-88
2022/10/18 09:19:46;;;;;;;13.50;11.80;;;;;;;;;;5031707;28;20418;-88
2022/10/18 09:22:13;;;;;;;12.35;11.10;;;;;;;;;;5029893;28;20421;-87
2022/10/18 09:24:48;;;;;;;12.85;11.55;;;;;;;;;;5031428;28;20436;-88
2022/10/18 09:27:16;;;;;;;15.23;10.90;;;;;;;;;;5018459;28;20385;-88
2022/10/18 09:29:45;;;;;;;13.38;10.38;;;;;;;;;;5029288;28;20429;-87
2022/10/18 09:32:29;;;;;;;11.90;9.45;;;;;;;;;;5016402;28;20413;-87
2022/10/18 09:35:01;;;;;;;12.43;9.90;;;;;;;;;;5033556;28;20375;-87
2022/10/18 09:37:29;;;;;;;21.88;11.00;;;;;;;;;;5035214;28;20386;-85
2022/10/18 09:40:02;;;;;;;16.27;11.20;;;;;;;;;;5034924;28;20429;-86
2022/10/18 09:42:35;;;;;;;10.50;8.70;;;;;;;;;;5035008;28;20378;-88
2022/10/18 09:45:03;;;;;;;8.52;7.72;;;;;;;;;;5034863;28;20379;-88
2022/10/18 09:47:33;;;;;;;8.23;6.93;;;;;;;;;;5034878;28;20489;-87
2022/10/18 09:50:02;;;;;;;7.93;6.47;;;;;;;;;;5035587;28;20391;-87
2022/10/18 09:52:34;;;;;;;10.15;6.60;;;;;;;;;;5021297;28;20415;-87
2022/10/18 09:55:02;;;;;;;8.35;6.22;;;;;;;;;;5030393;28;20390;-87
2022/10/18 09:57:35;;;;;;;8.05;7.25;;;;;;;;;;5025984;28;20433;-87
2022/10/18 10:00:02;;;;;;;8.40;7.35;;;;;;;;;;5038440;28;20383;-88
2022/10/18 10:02:28;;;;;;;9.30;6.27;;;;;;;;;;5034344;28;20391;-87
2022/10/18 10:04:54;;;;;;;7.10;6.40;;;;;;;;;;5034621;28;20445;-87
2022/10/18 10:07:25;;;;;;;10.00;6.35;;;;;;;;;;5034501;28;20387;-87
2022/10/18 10:09:58;;;;;;;7.25;5.80;;;;;;;;;;5018797;28;20744;-85
2022/10/18 10:12:26;;;;;;;6.77;5.70;;;;;;;;;;5034269;28;20963;-87
2022/10/18 10:14:52;;;;;;;6.18;5.57;;;;;;;;;;5034435;28;20383;-86
2022/10/18 10:17:23;;;;;;;9.90;5.63;;;;;;;;;;5034352;28;20383;-87
2022/10/18 10:20:02;;;;;;;6.50;5.80;;;;;;;;;;5034734;28;20428;-89
2022/10/18 10:22:47;;;;;;;6.23;5.20;;;;;;;;;;5034634;28;20798;-89
2022/10/18 10:25:21;;;;;;;6.63;5.53;;;;;;;;;;5025950;28;20380;-91
2022/10/18 10:27:47;;;;;;;8.05;5.90;;;;;;;;;;5028719;28;20734;-90
2022/10/18 10:30:22;;;;;;;7.15;4.95;;;;;;;;;;5014602;28;20728;-88
2022/10/18 10:32:49;;;;;;;9.00;5.50;;;;;;;;;;5021205;28;20486;-91
2022/10/18 10:35:32;;;;;;;5.75;5.13;;;;;;;;;;4998168;28;20391;-90
2022/10/18 10:37:58;;;;;;;7.50;5.72;;;;;;;;;;5000200;28;20731;-88
2022/10/18 10:40:33;;;;;;;7.72;6.50;;;;;;;;;;4995746;28;20381;-90
2022/10/18 10:42:59;;;;;;;6.28;4.95;;;;;;;;;;5023268;28;20394;-88
2022/10/18 10:45:26;;;;;;;8.45;5.90;;;;;;;;;;5033796;28;20494;-86
2022/10/18 10:47:53;;;;;;;6.80;6.10;;;;;;;;;;5034080;28;20399;-89
2022/10/18 10:50:24;;;;;;;8.70;6.30;;;;;;;;;;5002144;28;20925;-88
2022/10/18 10:52:50;;;;;;;6.90;5.65;;;;;;;;;;4996611;28;20915;-84
2022/10/18 10:55:17;;;;;;;6.20;5.63;;;;;;;;;;4998664;28;20391;-82
2022/10/18 10:57:44;;;;;;;6.13;5.20;;;;;;;;;;5009784;28;20471;-83
2022/10/18 11:00:30;;;;;;;4.87;4.27;;;;;;;;;;5011243;28;20402;-82
2022/10/18 11:03:05;;;;;;;6.68;4.07;;;;;;;;;;5033236;28;20877;-83
2022/10/18 11:05:41;;;;;;;5.10;4.15;;;;;;;;;;4999002;28;20923;-84
2022/10/18 11:08:09;;;;;;;6.68;4.18;;;;;;;;;;4994484;28;20386;-83
2022/10/18 11:10:47;;;;;;;4.10;3.30;;;;;;;;;;4997689;28;20383;-84
2022/10/18 11:13:17;;;;;;;6.30;3.88;;;;;;;;;;5000718;28;20429;-83
2022/10/18 11:15:48;;;;;;;5.20;3.90;;;;;;;;;;4996334;28;20429;-83
2022/10/18 11:18:18;;;;;;;6.93;3.50;;;;;;;;;;4994570;28;20386;-84
2022/10/18 11:20:46;;;;;;;4.18;3.60;;;;;;;;;;4997888;28;20492;-83
2022/10/18 11:23:16;;;;;;;6.90;3.53;;;;;;;;;;4998260;28;20971;-83
2022/10/18 11:25:53;;;;;;;5.57;3.30;;;;;;;;;;4995758;28;20410;-84
2022/10/18 11:28:28;;;;;;;3.85;3.33;;;;;;;;;;4995603;28;20446;-84
2022/10/18 11:30:58;;;;;;;6.88;4.45;;;;;;;;;;4998505;28;20920;-84
2022/10/18 11:33:24;;;;;;;7.15;3.60;;;;;;;;;;5007314;28;20383;-84
2022/10/18 11:35:52;;;;;;;5.75;3.28;;;;;;;;;;5033094;28;20383;-84
2022/10/18 11:38:36;;;;;;;4.95;3.22;;;;;;;;;;5033000;28;20383;-83
2022/10/18 11:41:11;;;;;;;4.55;3.55;;;;;;;;;;5032758;28;20421;-86
2022/10/18 11:43:41;;;;;;;7.93;3.28;;;;;;;;;;5032440;28;20883;-85
2022/10/18 11:46:18;;;;;;;7.05;2.95;;;;;;;;;;5032899;28;20383;-87
2022/10/18 11:48:54;;;;;;;6.50;3.10;;;;;;;;;;5025391;28;20398;-87
2022/10/18 11:51:39;;;;;;;5.65;2.70;;;;;;;;;;5006870;28;20412;-86
2022/10/18 11:54:10;;;;;;;7.65;3.20;;;;;;;;;;5026359;28;20391;-85
2022/10/18 11:56:39;;;;;;;6.00;2.92;;;;;;;;;;5032474;28;20444;-86
2022/10/18 11:59:09;;;;;;;8.82;3.50;;;;;;;;;;5018570;28;20898;-86
2022/10/18 12:01:47;;;;;;;7.50;3.70;;;;;;;;;;5015164;28;20768;-85
2022/10/18 14:47:53;;;;;;;6.07;2.50;;;;;;;;;;5142962;27;20364;-87
2022/10/18 14:50:20;;;;;;;10.90;2.67;;;;;;;;;;5105954;28;20417;-86
2022/10/18 14:52:47;;;;;;;6.07;2.20;;;;;;;;;;5105525;28;20447;-86
2022/10/18 14:55:27;;;;;;;8.65;3.08;;;;;;;;;;5100941;28;20369;-86
2022/10/18 14:57:53;;;;;;;8.02;2.70;;;;;;;;;;5106251;28;20369;-86
2022/10/18 15:00:24;;;;;;;5.80;2.40;;;;;;;;;;5108941;28;20369;-86
2022/10/18 15:02:51;;;;;;;5.45;2.55;;;;;;;;;;5108877;28;20378;-86
2022/10/18 15:05:22;;;;;;;3.97;2.47;;;;;;;;;;5108919;28;20423;-86
2022/10/18 15:07:49;;;;;;;7.32;2.50;;;;;;;;;;5109282;28;20928;-86
2022/10/18 15:10:16;;;;;;;5.70;2.53;;;;;;;;;;5109768;28;20374;-87
2022/10/18 15:12:43;;;;;;;6.25;2.58;;;;;;;;;;5109818;28;20374;-86
2022/10/18 15:15:25;;;;;;;8.00;2.70;;;;;;;;;;5099753;28;20383;-86
2022/10/18 15:17:51;;;;;;;6.00;2.65;;;;;;;;;;5107301;28;20753;-86
2022/10/18 15:20:23;;;;;;;14.18;5.95;;;;;;;;;;5088799;28;20431;-86
2022/10/18 15:22:49;;;;;;;11.88;5.05;;;;;;;;;;5109397;28;20373;-85
2022/10/18 15:25:17;;;;;;;8.85;4.60;;;;;;;;;;5109465;28;20423;-86
2022/10/18 15:27:45;;;;;;;13.68;5.82;;;;;;;;;;5109593;28;20474;-86
2022/10/18 15:30:15;;;;;;;8.40;3.70;;;;;;;;;;5109484;28;20553;-87
2022/10/18 15:32:49;;;;;;;14.02;5.30;;;;;;;;;;5096980;28;20365;-86
2022/10/18 15:35:35;;;;;;;10.75;2.63;;;;;;;;;;5109250;28;20727;-86
2022/10/18 15:38:12;;;;;;;6.43;2.40;;;;;;;;;;5109112;28;20475;-85
2022/10/18 15:40:39;;;;;;;5.78;2.40;;;;;;;;;;5108876;28;20451;-85
2022/10/18 15:43:25;;;;;;;5.43;2.13;;;;;;;;;;5109307;28;20373;-85
2022/10/18 15:45:52;;;;;;;6.28;2.40;;;;;;;;;;5102417;28;20912;-85
2022/10/18 15:48:26;;;;;;;4.80;2.50;;;;;;;;;;5109215;28;20406;-85
2022/10/18 15:50:53;;;;;;;8.17;2.70;;;;;;;;;;5108705;28;20389;-86
2022/10/18 15:53:19;;;;;;;5.28;2.42;;;;;;;;;;5108592;28;20377;-85
2022/10/18 15:56:06;;;;;;;6.70;2.60;;;;;;;;;;5078885;28;20394;-84
2022/10/18 15:58:32;;;;;;;7.57;2.80;;;;;;;;;;5069446;28;20380;-84
2022/10/18 16:00:59;;;;;;;8.27;3.00;;;;;;;;;;5056174;28;20760;-83
2022/10/18 16:03:25;;;;;;;6.57;2.92;;;;;;;;;;5062590;28;20392;-86
2022/10/18 16:06:11;;;;;;;8.25;2.95;;;;;;;;;;5070174;28;20831;-83
2022/10/18 16:26:37;;;;;;;7.32;2.80;;;;;;;;;;5130883;27;20358;-88
2022/10/18 16:29:03;;;;;;;21.77;3.70;;;;;;;;;;5089945;28;20888;-85
2022/10/18 16:31:30;;;;;;;18.00;3.47;;;;;;;;;;5089557;28;20415;-88
2022/10/18 16:33:57;;;;;;;11.95;3.28;;;;;;;;;;5089578;28;20391;-87
2022/10/18 16:36:30;;;;;;;9.38;3.20;;;;;;;;;;5089262;28;20398;-89
2022/10/18 16:38:56;;;;;;;10.95;3.97;;;;;;;;;;5088143;28;20401;-88
2022/10/18 16:41:23;;;;;;;11.52;3.40;;;;;;;;;;5094887;28;20376;-86
2022/10/18 16:43:49;;;;;;;9.90;3.35;;;;;;;;;;5089088;28;20377;-87
2022/10/18 16:46:17;;;;;;;7.18;3.08;;;;;;;;;;5084533;28;20837;-89
2022/10/18 16:48:43;;;;;;;11.15;3.25;;;;;;;;;;5098133;28;20381;-89
2022/10/18 16:51:10;;;;;;;6.68;3.03;;;;;;;;;;5091622;28;20405;-86
2022/10/18 16:53:36;;;;;;;6.30;2.83;;;;;;;;;;5088477;28;20466;-87
2022/10/18 16:56:02;;;;;;;9.27;3.22;;;;;;;;;;5079335;28;20468;-86
2022/10/18 16:58:29;;;;;;;7.20;3.15;;;;;;;;;;5089382;28;20385;-89
2022/10/18 17:00:56;;;;;;;7.53;3.00;;;;;;;;;;5084885;28;20385;-87
2022/10/18 17:03:22;;;;;;;8.85;3.22;;;;;;;;;;5068391;28;20408;-87
2022/10/18 17:05:48;;;;;;;9.20;3.30;;;;;;;;;;5075192;28;20420;-86
2022/10/18 17:08:19;;;;;;;12.07;3.60;;;;;;;;;;5084132;28;20379;-85
2022/10/18 17:10:45;;;;;;;8.85;3.47;;;;;;;;;;5088856;28;20444;-86
2022/10/18 17:13:11;;;;;;;7.90;3.20;;;;;;;;;;5088929;28;20458;-86
2022/10/18 17:15:37;;;;;;;5.47;3.00;;;;;;;;;;5088762;28;20709;-85
2022/10/18 17:18:04;;;;;;;7.18;3.25;;;;;;;;;;5088471;28;20375;-86
2022/10/18 17:20:30;;;;;;;9.20;3.10;;;;;;;;;;5088580;28;20390;-87
2022/10/18 17:22:56;;;;;;;8.52;3.17;;;;;;;;;;5088702;28;20382;-86
2022/10/18 17:25:22;;;;;;;5.10;3.00;;;;;;;;;;5088428;28;20510;-85
2022/10/18 17:27:48;;;;;;;6.15;2.90;;;;;;;;;;5090152;28;20381;-86
2022/10/18 17:30:16;;;;;;;7.38;3.00;;;;;;;;;;5094959;28;20882;-87
2022/10/18 17:32:43;;;;;;;12.90;5.55;;;;;;;;;;5088449;28;20383;-87
2022/10/18 17:35:10;;;;;;;9.93;4.40;;;;;;;;;;5081636;28;20424;-86
2022/10/18 17:37:36;;;;;;;10.35;4.63;;;;;;;;;;5072101;28;20985;-87
2022/10/18 17:40:03;;;;;;;11.48;4.25;;;;;;;;;;5069086;28;20876;-88
2022/10/18 17:42:29;;;;;;;10.98;4.22;;;;;;;;;;5064113;28;20385;-86
2022/10/18 17:44:55;;;;;;;8.00;4.50;;;;;;;;;;5074675;28;20498;-88
2022/10/18 17:47:21;;;;;;;9.50;4.32;;;;;;;;;;5075090;28;20387;-87
2022/10/18 17:49:46;;;;;;;10.40;4.15;;;;;;;;;;5070055;28;20381;-87
2022/10/18 17:52:13;;;;;;;12.60;3.95;;;;;;;;;;5070821;28;20391;-88
2022/10/18 17:54:38;;;;;;;17.08;4.13;;;;;;;;;;5073419;28;20380;-89
2022/10/18 17:57:04;;;;;;;12.38;4.28;;;;;;;;;;5055231;28;20401;-89
2022/10/18 17:59:31;;;;;;;7.70;4.03;;;;;;;;;;5060323;28;20389;-89
2022/10/18 18:01:57;;;;;;;16.80;3.78;;;;;;;;;;5053457;28;20390;-89
2022/10/18 18:04:24;;;;;;;13.25;3.60;;;;;;;;;;5054071;28;20850;-88
2022/10/18 18:06:51;;;;;;;11.85;3.40;;;;;;;;;;5059347;28;20389;-89
2022/10/18 18:09:18;;;;;;;10.25;3.33;;;;;;;;;;5053054;28;20393;-90
2022/10/18 18:11:47;;;;;;;8.13;3.60;;;;;;;;;;5056761;28;20492;-90
2022/10/18 18:14:14;;;;;;;15.77;3.65;;;;;;;;;;5054403;28;20434;-91
2022/10/18 18:16:41;;;;;;;11.52;3.85;;;;;;;;;;5058616;28;20885;-90
2022/10/18 18:19:08;;;;;;;5.93;3.35;;;;;;;;;;5070209;28;20402;-88
2022/10/18 18:21:35;;;;;;;8.43;3.70;;;;;;;;;;5067225;28;20395;-87
2022/10/18 18:24:00;;;;;;;9.17;3.77;;;;;;;;;;5074278;28;20372;-87
2022/10/18 18:26:27;;;;;;;7.03;3.55;;;;;;;;;;5072159;28;20425;-88
2022/10/18 18:28:53;;;;;;;8.88;4.13;;;;;;;;;;5073714;28;20490;-87
2022/10/18 18:31:22;;;;;;;11.00;3.95;;;;;;;;;;5072567;28;20896;-87
2022/10/18 18:33:48;;;;;;;4.88;3.67;;;;;;;;;;5073775;28;20371;-87
2022/10/18 18:36:14;;;;;;;7.35;3.60;;;;;;;;;;5072607;28;20406;-86
2022/10/18 18:38:44;;;;;;;8.13;3.70;;;;;;;;;;5073843;28;20392;-88
2022/10/18 18:41:12;;;;;;;7.07;4.05;;;;;;;;;;5073412;28;20429;-89
2022/10/18 18:43:40;;;;;;;6.40;3.50;;;;;;;;;;5073612;28;20772;-87
2022/10/18 18:46:06;;;;;;;4.90;3.70;;;;;;;;;;5073572;28;20405;-88
2022/10/18 18:48:33;;;;;;;8.23;4.15;;;;;;;;;;5072808;28;20380;-87
2022/10/18 18:50:59;;;;;;;6.82;3.53;;;;;;;;;;5073434;28;20899;-86
2022/10/18 18:53:25;;;;;;;5.57;4.15;;;;;;;;;;5072439;28;20435;-88
2022/10/18 18:55:51;;;;;;;7.70;3.90;;;;;;;;;;5067209;28;20389;-88
2022/10/18 18:58:18;;;;;;;11.02;4.20;;;;;;;;;;5074141;28;20395;-86
2022/10/18 19:00:44;;;;;;;9.15;4.15;;;;;;;;;;5073214;28;20379;-88
2022/10/18 19:03:10;;;;;;;4.90;3.70;;;;;;;;;;5073232;28;20441;-87
2022/10/18 19:05:36;;;;;;;6.32;4.15;;;;;;;;;;5073468;28;20399;-87
2022/10/18 19:08:04;;;;;;;10.60;4.07;;;;;;;;;;5073469;28;20391;-88
2022/10/18 19:10:30;;;;;;;12.60;4.75;;;;;;;;;;5065961;28;20383;-86
2022/10/18 19:12:56;;;;;;;13.13;4.80;;;;;;;;;;5061913;28;20827;-86
2022/10/18 19:15:22;;;;;;;10.13;4.28;;;;;;;;;;5056763;28;20412;-87
2022/10/18 19:17:48;;;;;;;12.55;4.40;;;;;;;;;;5059812;28;20436;-87
2022/10/18 19:20:16;;;;;;;12.05;4.63;;;;;;;;;;5068075;28;20399;-89
2022/10/18 19:22:42;;;;;;;11.85;4.00;;;;;;;;;;5059106;28;20405;-87
2022/10/18 19:25:08;;;;;;;7.47;3.83;;;;;;;;;;5062737;28;20430;-86
2022/10/18 19:27:34;;;;;;;9.20;3.95;;;;;;;;;;5067223;28;20397;-87
2022/10/18 19:30:00;;;;;;;9.43;4.30;;;;;;;;;;5065897;28;20862;-88
2022/10/18 19:32:26;;;;;;;9.60;4.43;;;;;;;;;;5055516;28;20396;-88
2022/10/18 19:34:52;;;;;;;5.32;3.90;;;;;;;;;;5056610;28;20411;-88
2022/10/18 19:37:18;;;;;;;7.22;3.97;;;;;;;;;;5067306;28;20933;-88
2022/10/18 19:39:44;;;;;;;5.38;3.90;;;;;;;;;;5064031;28;20391;-86
2022/10/18 19:42:12;;;;;;;4.13;3.67;;;;;;;;;;5056220;28;20389;-88
2022/10/18 19:44:39;;;;;;;6.03;3.60;;;;;;;;;;5061550;28;20412;-87
2022/10/18 19:47:06;;;;;;;4.53;3.42;;;;;;;;;;5055167;28;20523;-87
2022/10/18 19:49:32;;;;;;;7.03;3.50;;;;;;;;;;5057271;28;20846;-86
2022/10/18 19:51:58;;;;;;;5.82;3.72;;;;;;;;;;5056501;28;20495;-88
2022/10/18 19:54:24;;;;;;;5.47;3.38;;;;;;;;;;5059246;28;20411;-87
2022/10/18 19:56:50;;;;;;;5.82;3.67;;;;;;;;;;5062619;28;20395;-87
2022/10/18 19:59:17;;;;;;;6.70;4.20;;;;;;;;;;5065421;28;20397;-87
2022/10/18 20:01:43;;;;;;;6.37;4.03;;;;;;;;;;5064560;28;20401;-87
2022/10/18 20:04:10;;;;;;;5.65;4.55;;;;;;;;;;5066481;28;20691;-87
2022/10/18 20:06:37;;;;;;;6.72;4.20;;;;;;;;;;5063320;28;20930;-87
2022/10/18 20:09:03;;;;;;;7.72;3.88;;;;;;;;;;5061879;28;20400;-87
2022/10/18 20:11:29;;;;;;;6.37;3.93;;;;;;;;;;5062745;28;20507;-88
2022/10/18 20:13:56;;;;;;;5.53;3.42;;;;;;;;;;5061354;28;20477;-88
2022/10/18 20:16:23;;;;;;;4.25;3.30;;;;;;;;;;5055979;28;20898;-88
2022/10/18 20:18:53;;;;;;;6.35;3.50;;;;;;;;;;5067305;28;20667;-87
2022/10/18 20:21:19;;;;;;;5.65;3.58;;;;;;;;;;5066822;28;20490;-87
2022/10/18 20:23:45;;;;;;;5.07;3.85;;;;;;;;;;5065147;28;20480;-89
2022/10/18 20:26:13;;;;;;;5.45;3.85;;;;;;;;;;5070623;28;20897;-89
2022/10/18 20:28:39;;;;;;;3.95;3.40;;;;;;;;;;5065373;28;20380;-87
2022/10/18 20:31:10;;;;;;;6.07;3.38;;;;;;;;;;5060755;28;20392;-87
2022/10/18 20:33:37;;;;;;;7.50;3.53;;;;;;;;;;5066014;28;20391;-87
2022/10/18 20:36:16;;;;;;;5.63;3.58;;;;;;;;;;5060649;28;20418;-87
2022/10/18 20:38:43;;;;;;;4.63;3.38;;;;;;;;;;5065159;28;20399;-87
2022/10/18 20:41:14;;;;;;;3.97;3.20;;;;;;;;;;5063093;28;20451;-87
2022/10/18 20:43:40;;;;;;;5.32;3.58;;;;;;;;;;5065769;28;20384;-87
2022/10/18 20:46:06;;;;;;;9.63;3.75;;;;;;;;;;5064333;28;20395;-87
2022/10/18 20:48:33;;;;;;;7.13;3.20;;;;;;;;;;5059024;28;20390;-86
2022/10/18 20:51:03;;;;;;;5.27;3.00;;;;;;;;;;5053435;28;20423;-88
2022/10/18 20:53:29;;;;;;;5.50;3.45;;;;;;;;;;5051362;28;20420;-87
2022/10/18 20:56:02;;;;;;;6.70;3.40;;;;;;;;;;5052510;28;20421;-86
2022/10/18 20:58:28;;;;;;;4.90;3.25;;;;;;;;;;5050471;28;20509;-87
2022/10/18 21:00:54;;;;;;;4.05;2.97;;;;;;;;;;5062548;28;20397;-87
2022/10/18 21:03:20;;;;;;;4.28;3.22;;;;;;;;;;5050298;28;20385;-87
2022/10/18 21:05:46;;;;;;;7.80;3.50;;;;;;;;;;5057210;28;20762;-88
2022/10/18 21:08:14;;;;;;;8.35;3.92;;;;;;;;;;5051693;28;20381;-86
2022/10/18 21:10:40;;;;;;;7.35;3.45;;;;;;;;;;5053952;28;20420;-87
2022/10/18 21:13:06;;;;;;;7.75;3.70;;;;;;;;;;5057536;28;20402;-86
2022/10/18 21:15:32;;;;;;;6.53;3.10;;;;;;;;;;5056181;28;20732;-87
2022/10/18 21:17:58;;;;;;;5.68;3.20;;;;;;;;;;5054319;28;20381;-87
2022/10/18 21:20:24;;;;;;;4.78;3.55;;;;;;;;;;5054767;28;20391;-87
2022/10/18 21:22:50;;;;;;;6.05;3.25;;;;;;;;;;5059330;28;20751;-84
2022/10/18 21:25:17;;;;;;;7.05;3.35;;;;;;;;;;5055363;28;20496;-86
2022/10/18 21:27:43;;;;;;;4.03;3.17;;;;;;;;;;5057291;28;20393;-85
2022/10/18 21:30:10;;;;;;;5.05;3.03;;;;;;;;;;5054837;28;20385;-85
2022/10/18 21:32:36;;;;;;;5.97;3.20;;;;;;;;;;5058740;28;20382;-84
2022/10/18 21:35:02;;;;;;;4.00;2.83;;;;;;;;;;5063070;28;20382;-84
2022/10/18 21:37:28;;;;;;;5.45;2.90;;;;;;;;;;5074889;28;20455;-85
2022/10/18 21:39:54;;;;;;;6.22;3.28;;;;;;;;;;5073701;28;20450;-85
2022/10/18 21:42:20;;;;;;;5.80;3.20;;;;;;;;;;5074772;28;20773;-85
2022/10/18 21:44:46;;;;;;;4.93;3.30;;;;;;;;;;5073427;28;20404;-84